sensor_id;sensor_type;location;lat;lon;timestamp;P1;durP1;ratioP1;P2;durP2;ratioP2
69203;SDS011;56317;27.658;85.326;2022-07-24T00:01:02;6.13;;;4.40;;
69203;SDS011;56317;27.658;85.326;2022-07-24T00:03:29;8.52;;;4.97;;
69203;SDS011;56317;27.658;85.326;2022-07-24T00:05:57;8.43;;;5.00;;
69203;SDS011;56317;27.658;85.326;2022-07-24T00:08:24;10.27;;;5.80;;
69203;SDS011;56317;27.658;85.326;2022-07-24T00:10:51;7.82;;;4.90;;
69203;SDS011;56317;27.658;85.326;2022-07-24T00:13:18;9.27;;;5.40;;
69203;SDS011;56317;27.658;85.326;2022-07-24T00:15:45;8.18;;;4.22;;
69203;SDS011;56317;27.658;85.326;2022-07-24T00:18:12;6.30;;;3.75;;
69203;SDS011;56317;27.658;85.326;2022-07-24T00:20:39;7.20;;;4.47;;
69203;SDS011;56317;27.658;85.326;2022-07-24T00:23:06;7.90;;;4.68;;
69203;SDS011;56317;27.658;85.326;2022-07-24T00:25:34;7.55;;;4.50;;
69203;SDS011;56317;27.658;85.326;2022-07-24T00:28:01;9.35;;;4.35;;
69203;SDS011;56317;27.658;85.326;2022-07-24T00:30:28;6.68;;;4.15;;
69203;SDS011;56317;27.658;85.326;2022-07-24T00:32:55;7.32;;;4.60;;
69203;SDS011;56317;27.658;85.326;2022-07-24T00:35:22;9.68;;;5.28;;
69203;SDS011;56317;27.658;85.326;2022-07-24T00:37:49;10.25;;;5.00;;
69203;SDS011;56317;27.658;85.326;2022-07-24T00:40:17;6.93;;;4.95;;
69203;SDS011;56317;27.658;85.326;2022-07-24T00:42:44;7.85;;;4.60;;
69203;SDS011;56317;27.658;85.326;2022-07-24T00:45:11;6.07;;;4.10;;
69203;SDS011;56317;27.658;85.326;2022-07-24T00:47:38;5.75;;;3.60;;
69203;SDS011;56317;27.658;85.326;2022-07-24T00:50:05;7.95;;;3.90;;
69203;SDS011;56317;27.658;85.326;2022-07-24T00:52:33;6.60;;;3.65;;
69203;SDS011;56317;27.658;85.326;2022-07-24T00:55:00;6.82;;;4.32;;
69203;SDS011;56317;27.658;85.326;2022-07-24T00:57:27;7.18;;;4.45;;
69203;SDS011;56317;27.658;85.326;2022-07-24T00:59:55;6.65;;;4.63;;
69203;SDS011;56317;27.658;85.326;2022-07-24T01:02:22;7.28;;;4.50;;
69203;SDS011;56317;27.658;85.326;2022-07-24T01:04:50;6.38;;;4.38;;
69203;SDS011;56317;27.658;85.326;2022-07-24T01:07:17;6.00;;;3.63;;
69203;SDS011;56317;27.658;85.326;2022-07-24T01:09:45;4.75;;;3.10;;
69203;SDS011;56317;27.658;85.326;2022-07-24T01:12:12;5.43;;;2.83;;
69203;SDS011;56317;27.658;85.326;2022-07-24T01:14:39;6.55;;;2.80;;
69203;SDS011;56317;27.658;85.326;2022-07-24T01:17:07;5.47;;;4.10;;
69203;SDS011;56317;27.658;85.326;2022-07-24T01:19:34;5.80;;;3.70;;
69203;SDS011;56317;27.658;85.326;2022-07-24T01:22:01;6.07;;;3.17;;
69203;SDS011;56317;27.658;85.326;2022-07-24T01:24:29;5.35;;;3.40;;
69203;SDS011;56317;27.658;85.326;2022-07-24T01:26:56;5.05;;;3.25;;
69203;SDS011;56317;27.658;85.326;2022-07-24T01:29:23;5.80;;;3.40;;
69203;SDS011;56317;27.658;85.326;2022-07-24T01:31:51;6.30;;;3.97;;
69203;SDS011;56317;27.658;85.326;2022-07-24T01:34:18;5.32;;;3.40;;
69203;SDS011;56317;27.658;85.326;2022-07-24T01:36:45;5.22;;;3.30;;
69203;SDS011;56317;27.658;85.326;2022-07-24T01:39:12;5.50;;;3.25;;
69203;SDS011;56317;27.658;85.326;2022-07-24T01:41:39;4.90;;;3.35;;
69203;SDS011;56317;27.658;85.326;2022-07-24T01:44:07;4.95;;;3.22;;
69203;SDS011;56317;27.658;85.326;2022-07-24T01:46:34;5.30;;;3.28;;
69203;SDS011;56317;27.658;85.326;2022-07-24T01:49:01;5.80;;;3.38;;
69203;SDS011;56317;27.658;85.326;2022-07-24T01:51:29;6.25;;;3.60;;
69203;SDS011;56317;27.658;85.326;2022-07-24T01:53:56;5.95;;;3.80;;
69203;SDS011;56317;27.658;85.326;2022-07-24T01:56:23;6.22;;;3.60;;
69203;SDS011;56317;27.658;85.326;2022-07-24T01:58:50;5.93;;;3.72;;
69203;SDS011;56317;27.658;85.326;2022-07-24T02:01:26;8.07;;;4.43;;
69203;SDS011;56317;27.658;85.326;2022-07-24T02:03:55;6.13;;;3.88;;
69203;SDS011;56317;27.658;85.326;2022-07-24T02:06:22;6.63;;;3.72;;
69203;SDS011;56317;27.658;85.326;2022-07-24T02:08:55;4.82;;;2.90;;
69203;SDS011;56317;27.658;85.326;2022-07-24T02:11:22;5.93;;;3.67;;
69203;SDS011;56317;27.658;85.326;2022-07-24T02:13:49;6.85;;;3.70;;
69203;SDS011;56317;27.658;85.326;2022-07-24T02:16:18;5.90;;;3.50;;
69203;SDS011;56317;27.658;85.326;2022-07-24T02:18:45;7.70;;;4.43;;
69203;SDS011;56317;27.658;85.326;2022-07-24T02:21:12;7.22;;;3.85;;
69203;SDS011;56317;27.658;85.326;2022-07-24T02:23:39;7.30;;;4.00;;
69203;SDS011;56317;27.658;85.326;2022-07-24T02:26:19;6.80;;;4.10;;
69203;SDS011;56317;27.658;85.326;2022-07-24T02:28:49;11.57;;;7.72;;
69203;SDS011;56317;27.658;85.326;2022-07-24T02:31:17;8.75;;;5.97;;
69203;SDS011;56317;27.658;85.326;2022-07-24T02:33:44;10.00;;;6.70;;
69203;SDS011;56317;27.658;85.326;2022-07-24T02:36:11;11.27;;;7.28;;
69203;SDS011;56317;27.658;85.326;2022-07-24T02:38:39;10.30;;;7.20;;
69203;SDS011;56317;27.658;85.326;2022-07-24T02:41:07;9.40;;;6.93;;
69203;SDS011;56317;27.658;85.326;2022-07-24T02:43:34;11.80;;;7.78;;
69203;SDS011;56317;27.658;85.326;2022-07-24T02:46:01;11.70;;;8.20;;
69203;SDS011;56317;27.658;85.326;2022-07-24T02:48:28;10.43;;;7.20;;
69203;SDS011;56317;27.658;85.326;2022-07-24T02:50:55;11.25;;;8.13;;
69203;SDS011;56317;27.658;85.326;2022-07-24T02:53:23;13.32;;;7.57;;
69203;SDS011;56317;27.658;85.326;2022-07-24T02:55:50;13.27;;;7.72;;
69203;SDS011;56317;27.658;85.326;2022-07-24T02:58:17;11.13;;;6.70;;
69203;SDS011;56317;27.658;85.326;2022-07-24T03:00:44;12.15;;;7.30;;
69203;SDS011;56317;27.658;85.326;2022-07-24T03:03:11;11.35;;;6.40;;
69203;SDS011;56317;27.658;85.326;2022-07-24T03:05:38;9.98;;;7.30;;
69203;SDS011;56317;27.658;85.326;2022-07-24T03:08:06;13.32;;;7.53;;
69203;SDS011;56317;27.658;85.326;2022-07-24T03:10:33;13.48;;;8.20;;
69203;SDS011;56317;27.658;85.326;2022-07-24T03:13:00;16.13;;;9.80;;
69203;SDS011;56317;27.658;85.326;2022-07-24T03:15:27;12.60;;;7.40;;
69203;SDS011;56317;27.658;85.326;2022-07-24T03:17:56;11.93;;;6.40;;
69203;SDS011;56317;27.658;85.326;2022-07-24T03:20:24;11.32;;;6.85;;
69203;SDS011;56317;27.658;85.326;2022-07-24T03:22:54;13.97;;;7.63;;
69203;SDS011;56317;27.658;85.326;2022-07-24T03:25:22;10.60;;;5.88;;
69203;SDS011;56317;27.658;85.326;2022-07-24T03:27:49;8.52;;;6.45;;
69203;SDS011;56317;27.658;85.326;2022-07-24T03:30:17;10.32;;;6.68;;
69203;SDS011;56317;27.658;85.326;2022-07-24T03:32:45;14.32;;;9.65;;
69203;SDS011;56317;27.658;85.326;2022-07-24T03:35:12;14.23;;;8.68;;
69203;SDS011;56317;27.658;85.326;2022-07-24T03:37:39;11.38;;;7.97;;
69203;SDS011;56317;27.658;85.326;2022-07-24T03:40:07;8.20;;;6.18;;
69203;SDS011;56317;27.658;85.326;2022-07-24T03:42:34;8.73;;;5.57;;
69203;SDS011;56317;27.658;85.326;2022-07-24T03:45:02;7.30;;;4.75;;
69203;SDS011;56317;27.658;85.326;2022-07-24T03:47:30;7.10;;;4.53;;
69203;SDS011;56317;27.658;85.326;2022-07-24T03:49:57;7.40;;;4.95;;
69203;SDS011;56317;27.658;85.326;2022-07-24T03:52:25;7.40;;;4.93;;
69203;SDS011;56317;27.658;85.326;2022-07-24T03:54:52;7.07;;;5.18;;
69203;SDS011;56317;27.658;85.326;2022-07-24T03:57:20;11.07;;;5.25;;
69203;SDS011;56317;27.658;85.326;2022-07-24T03:59:48;8.15;;;5.43;;
69203;SDS011;56317;27.658;85.326;2022-07-24T04:02:21;8.52;;;6.10;;
69203;SDS011;56317;27.658;85.326;2022-07-24T04:04:48;9.40;;;5.00;;
69203;SDS011;56317;27.658;85.326;2022-07-24T04:07:15;6.22;;;3.78;;
69203;SDS011;56317;27.658;85.326;2022-07-24T04:09:42;7.82;;;4.35;;
69203;SDS011;56317;27.658;85.326;2022-07-24T04:12:09;7.75;;;4.10;;
69203;SDS011;56317;27.658;85.326;2022-07-24T04:14:36;6.85;;;3.72;;
69203;SDS011;56317;27.658;85.326;2022-07-24T04:17:04;7.00;;;4.20;;
69203;SDS011;56317;27.658;85.326;2022-07-24T04:19:31;5.38;;;4.03;;
69203;SDS011;56317;27.658;85.326;2022-07-24T04:21:58;8.40;;;4.65;;
69203;SDS011;56317;27.658;85.326;2022-07-24T04:24:25;7.35;;;4.22;;
69203;SDS011;56317;27.658;85.326;2022-07-24T04:26:52;7.55;;;4.65;;
69203;SDS011;56317;27.658;85.326;2022-07-24T04:29:20;6.65;;;4.45;;
69203;SDS011;56317;27.658;85.326;2022-07-24T04:31:47;9.10;;;4.00;;
69203;SDS011;56317;27.658;85.326;2022-07-24T04:34:14;8.07;;;4.25;;
69203;SDS011;56317;27.658;85.326;2022-07-24T04:36:42;9.45;;;4.63;;
69203;SDS011;56317;27.658;85.326;2022-07-24T04:39:09;5.60;;;3.75;;
69203;SDS011;56317;27.658;85.326;2022-07-24T04:41:37;8.25;;;4.15;;
69203;SDS011;56317;27.658;85.326;2022-07-24T04:44:05;9.18;;;4.30;;
69203;SDS011;56317;27.658;85.326;2022-07-24T04:46:32;7.20;;;4.10;;
69203;SDS011;56317;27.658;85.326;2022-07-24T04:48:59;6.03;;;4.13;;
69203;SDS011;56317;27.658;85.326;2022-07-24T04:51:26;7.53;;;4.07;;
69203;SDS011;56317;27.658;85.326;2022-07-24T04:53:53;6.97;;;3.80;;
69203;SDS011;56317;27.658;85.326;2022-07-24T04:56:21;6.55;;;3.20;;
69203;SDS011;56317;27.658;85.326;2022-07-24T04:58:48;7.80;;;3.50;;
69203;SDS011;56317;27.658;85.326;2022-07-24T05:01:15;4.75;;;2.92;;
69203;SDS011;56317;27.658;85.326;2022-07-24T05:03:42;6.80;;;3.78;;
69203;SDS011;56317;27.658;85.326;2022-07-24T05:06:10;8.82;;;3.72;;
69203;SDS011;56317;27.658;85.326;2022-07-24T05:08:37;8.27;;;3.35;;
69203;SDS011;56317;27.658;85.326;2022-07-24T05:11:04;6.07;;;3.60;;
69203;SDS011;56317;27.658;85.326;2022-07-24T05:13:31;8.70;;;3.58;;
69203;SDS011;56317;27.658;85.326;2022-07-24T05:15:58;9.20;;;4.05;;
69203;SDS011;56317;27.658;85.326;2022-07-24T05:18:25;5.82;;;3.35;;
69203;SDS011;56317;27.658;85.326;2022-07-24T05:20:53;5.25;;;3.20;;
69203;SDS011;56317;27.658;85.326;2022-07-24T05:23:20;7.15;;;3.65;;
69203;SDS011;56317;27.658;85.326;2022-07-24T05:25:47;8.38;;;3.78;;
69203;SDS011;56317;27.658;85.326;2022-07-24T05:28:14;8.70;;;3.63;;
69203;SDS011;56317;27.658;85.326;2022-07-24T05:30:43;7.22;;;3.22;;
69203;SDS011;56317;27.658;85.326;2022-07-24T05:33:12;5.10;;;3.30;;
69203;SDS011;56317;27.658;85.326;2022-07-24T05:35:40;6.78;;;3.58;;
69203;SDS011;56317;27.658;85.326;2022-07-24T05:38:07;6.38;;;3.42;;
69203;SDS011;56317;27.658;85.326;2022-07-24T05:40:34;6.55;;;3.28;;
69203;SDS011;56317;27.658;85.326;2022-07-24T05:43:01;5.30;;;3.40;;
69203;SDS011;56317;27.658;85.326;2022-07-24T05:45:28;4.57;;;2.90;;
69203;SDS011;56317;27.658;85.326;2022-07-24T05:47:55;5.50;;;3.10;;
69203;SDS011;56317;27.658;85.326;2022-07-24T05:50:22;4.75;;;3.20;;
69203;SDS011;56317;27.658;85.326;2022-07-24T05:52:50;6.00;;;3.00;;
69203;SDS011;56317;27.658;85.326;2022-07-24T05:55:17;4.75;;;2.90;;
69203;SDS011;56317;27.658;85.326;2022-07-24T05:57:44;6.32;;;2.88;;
69203;SDS011;56317;27.658;85.326;2022-07-24T06:00:13;4.97;;;2.80;;
69203;SDS011;56317;27.658;85.326;2022-07-24T06:02:44;3.75;;;2.35;;
69203;SDS011;56317;27.658;85.326;2022-07-24T06:05:13;4.95;;;2.70;;
69203;SDS011;56317;27.658;85.326;2022-07-24T06:07:40;4.38;;;2.60;;
69203;SDS011;56317;27.658;85.326;2022-07-24T06:10:08;5.90;;;3.25;;
69203;SDS011;56317;27.658;85.326;2022-07-24T06:12:36;6.03;;;2.30;;
69203;SDS011;56317;27.658;85.326;2022-07-24T06:15:03;6.25;;;2.88;;
69203;SDS011;56317;27.658;85.326;2022-07-24T06:17:30;3.75;;;2.70;;
69203;SDS011;56317;27.658;85.326;2022-07-24T06:19:57;6.15;;;3.25;;
69203;SDS011;56317;27.658;85.326;2022-07-24T06:22:24;3.92;;;2.50;;
69203;SDS011;56317;27.658;85.326;2022-07-24T06:24:51;4.53;;;2.47;;
69203;SDS011;56317;27.658;85.326;2022-07-24T06:27:20;8.35;;;3.28;;
69203;SDS011;56317;27.658;85.326;2022-07-24T06:29:47;5.90;;;2.72;;
69203;SDS011;56317;27.658;85.326;2022-07-24T06:32:14;8.73;;;2.72;;
69203;SDS011;56317;27.658;85.326;2022-07-24T06:34:41;4.28;;;2.10;;
69203;SDS011;56317;27.658;85.326;2022-07-24T06:37:09;5.20;;;2.85;;
69203;SDS011;56317;27.658;85.326;2022-07-24T06:39:36;6.30;;;2.90;;
69203;SDS011;56317;27.658;85.326;2022-07-24T06:42:03;4.63;;;2.60;;
69203;SDS011;56317;27.658;85.326;2022-07-24T06:44:30;4.50;;;2.70;;
69203;SDS011;56317;27.658;85.326;2022-07-24T06:46:59;6.82;;;3.40;;
69203;SDS011;56317;27.658;85.326;2022-07-24T06:49:26;7.65;;;4.00;;
69203;SDS011;56317;27.658;85.326;2022-07-24T06:51:53;4.72;;;2.80;;
69203;SDS011;56317;27.658;85.326;2022-07-24T06:54:20;6.32;;;4.13;;
69203;SDS011;56317;27.658;85.326;2022-07-24T06:56:48;9.63;;;3.88;;
69203;SDS011;56317;27.658;85.326;2022-07-24T06:59:15;8.20;;;3.53;;
69203;SDS011;56317;27.658;85.326;2022-07-24T07:01:42;6.65;;;4.38;;
69203;SDS011;56317;27.658;85.326;2022-07-24T07:04:09;6.95;;;4.28;;
69203;SDS011;56317;27.658;85.326;2022-07-24T07:06:36;5.35;;;3.28;;
69203;SDS011;56317;27.658;85.326;2022-07-24T07:09:03;7.55;;;3.85;;
69203;SDS011;56317;27.658;85.326;2022-07-24T07:11:30;3.92;;;2.60;;
69203;SDS011;56317;27.658;85.326;2022-07-24T07:13:57;6.68;;;3.45;;
69203;SDS011;56317;27.658;85.326;2022-07-24T07:16:24;3.92;;;2.50;;
69203;SDS011;56317;27.658;85.326;2022-07-24T07:18:52;9.18;;;3.28;;
69203;SDS011;56317;27.658;85.326;2022-07-24T07:21:19;6.30;;;3.03;;
69203;SDS011;56317;27.658;85.326;2022-07-24T07:23:46;5.07;;;2.65;;
69203;SDS011;56317;27.658;85.326;2022-07-24T07:26:13;6.13;;;2.72;;
69203;SDS011;56317;27.658;85.326;2022-07-24T07:28:41;5.30;;;3.58;;
69203;SDS011;56317;27.658;85.326;2022-07-24T07:31:08;5.53;;;2.95;;
69203;SDS011;56317;27.658;85.326;2022-07-24T07:33:35;6.18;;;3.17;;
69203;SDS011;56317;27.658;85.326;2022-07-24T07:36:02;6.05;;;2.97;;
69203;SDS011;56317;27.658;85.326;2022-07-24T07:38:29;9.18;;;3.28;;
69203;SDS011;56317;27.658;85.326;2022-07-24T07:40:57;4.47;;;2.72;;
69203;SDS011;56317;27.658;85.326;2022-07-24T07:43:24;8.15;;;3.85;;
69203;SDS011;56317;27.658;85.326;2022-07-24T07:45:51;5.60;;;2.97;;
69203;SDS011;56317;27.658;85.326;2022-07-24T07:48:18;5.32;;;2.97;;
69203;SDS011;56317;27.658;85.326;2022-07-24T07:50:45;5.82;;;3.40;;
69203;SDS011;56317;27.658;85.326;2022-07-24T07:53:12;5.63;;;3.17;;
69203;SDS011;56317;27.658;85.326;2022-07-24T07:55:39;8.63;;;3.83;;
69203;SDS011;56317;27.658;85.326;2022-07-24T07:58:08;6.63;;;3.60;;
69203;SDS011;56317;27.658;85.326;2022-07-24T08:00:35;7.95;;;4.20;;
69203;SDS011;56317;27.658;85.326;2022-07-24T08:03:02;7.53;;;3.70;;
69203;SDS011;56317;27.658;85.326;2022-07-24T08:05:30;7.20;;;3.67;;
69203;SDS011;56317;27.658;85.326;2022-07-24T08:07:57;6.03;;;3.10;;
69203;SDS011;56317;27.658;85.326;2022-07-24T08:10:24;8.25;;;3.10;;
69203;SDS011;56317;27.658;85.326;2022-07-24T08:12:51;5.78;;;2.85;;
69203;SDS011;56317;27.658;85.326;2022-07-24T08:15:19;6.60;;;3.10;;
69203;SDS011;56317;27.658;85.326;2022-07-24T08:17:50;7.00;;;2.80;;
69203;SDS011;56317;27.658;85.326;2022-07-24T08:20:21;6.53;;;2.42;;
69203;SDS011;56317;27.658;85.326;2022-07-24T08:22:48;5.20;;;2.80;;
69203;SDS011;56317;27.658;85.326;2022-07-24T08:25:16;8.38;;;2.22;;
69203;SDS011;56317;27.658;85.326;2022-07-24T08:27:43;6.43;;;2.42;;
69203;SDS011;56317;27.658;85.326;2022-07-24T08:30:11;4.53;;;2.17;;
69203;SDS011;56317;27.658;85.326;2022-07-24T08:32:38;3.47;;;1.80;;
69203;SDS011;56317;27.658;85.326;2022-07-24T08:35:06;4.78;;;2.10;;
69203;SDS011;56317;27.658;85.326;2022-07-24T08:37:37;2.78;;;1.35;;
69203;SDS011;56317;27.658;85.326;2022-07-24T08:40:09;3.72;;;1.33;;
69203;SDS011;56317;27.658;85.326;2022-07-24T08:42:37;5.65;;;2.30;;
69203;SDS011;56317;27.658;85.326;2022-07-24T08:45:05;4.05;;;1.77;;
69203;SDS011;56317;27.658;85.326;2022-07-24T08:47:33;2.22;;;1.30;;
69203;SDS011;56317;27.658;85.326;2022-07-24T08:50:00;5.75;;;1.38;;
69203;SDS011;56317;27.658;85.326;2022-07-24T08:52:28;2.75;;;1.60;;
69203;SDS011;56317;27.658;85.326;2022-07-24T08:54:55;6.82;;;1.33;;
69203;SDS011;56317;27.658;85.326;2022-07-24T08:57:23;2.72;;;1.30;;
69203;SDS011;56317;27.658;85.326;2022-07-24T08:59:51;2.83;;;1.60;;
69203;SDS011;56317;27.658;85.326;2022-07-24T09:02:18;2.15;;;1.23;;
69203;SDS011;56317;27.658;85.326;2022-07-24T09:04:48;2.65;;;1.30;;
69203;SDS011;56317;27.658;85.326;2022-07-24T09:07:18;3.80;;;1.20;;
69203;SDS011;56317;27.658;85.326;2022-07-24T09:10:06;3.47;;;1.10;;
69203;SDS011;56317;27.658;85.326;2022-07-24T09:12:36;3.10;;;1.10;;
69203;SDS011;56317;27.658;85.326;2022-07-24T09:17:58;3.60;;;1.38;;
69203;SDS011;56317;27.658;85.326;2022-07-24T09:20:26;3.03;;;1.30;;
69203;SDS011;56317;27.658;85.326;2022-07-24T09:22:56;2.20;;;1.05;;
69203;SDS011;56317;27.658;85.326;2022-07-24T09:25:25;3.55;;;1.30;;
69203;SDS011;56317;27.658;85.326;2022-07-24T09:30:32;2.78;;;1.10;;
69203;SDS011;56317;27.658;85.326;2022-07-24T09:33:01;1.92;;;0.90;;
69203;SDS011;56317;27.658;85.326;2022-07-24T09:38:12;4.22;;;1.40;;
69203;SDS011;56317;27.658;85.326;2022-07-24T09:40:44;2.20;;;1.20;;
69203;SDS011;56317;27.658;85.326;2022-07-24T09:51:05;3.45;;;1.80;;
69203;SDS011;56317;27.658;85.326;2022-07-24T09:53:42;7.38;;;1.83;;
69203;SDS011;56317;27.658;85.326;2022-07-24T09:56:15;1.98;;;1.30;;
69203;SDS011;56317;27.658;85.326;2022-07-24T09:58:53;4.45;;;1.50;;
69203;SDS011;56317;27.658;85.326;2022-07-24T10:01:26;4.65;;;1.70;;
69203;SDS011;56317;27.658;85.326;2022-07-24T10:03:54;2.92;;;1.23;;
69203;SDS011;56317;27.658;85.326;2022-07-24T10:06:23;2.95;;;1.75;;
69203;SDS011;56317;27.658;85.326;2022-07-24T10:08:51;5.68;;;2.70;;
69203;SDS011;56317;27.658;85.326;2022-07-24T10:11:19;6.53;;;2.88;;
69203;SDS011;56317;27.658;85.326;2022-07-24T10:13:48;8.05;;;3.97;;
69203;SDS011;56317;27.658;85.326;2022-07-24T10:18:50;8.38;;;3.15;;
69203;SDS011;56317;27.658;85.326;2022-07-24T10:21:25;3.45;;;1.98;;
69203;SDS011;56317;27.658;85.326;2022-07-24T10:26:42;4.95;;;2.58;;
69203;SDS011;56317;27.658;85.326;2022-07-24T10:31:40;2.50;;;1.52;;
69203;SDS011;56317;27.658;85.326;2022-07-24T10:36:49;8.40;;;3.40;;
69203;SDS011;56317;27.658;85.326;2022-07-24T10:45:37;5.03;;;2.97;;
69203;SDS011;56317;27.658;85.326;2022-07-24T10:56:17;7.50;;;3.75;;
69203;SDS011;56317;27.658;85.326;2022-07-24T10:58:54;4.90;;;2.60;;
69203;SDS011;56317;27.658;85.326;2022-07-24T11:09:25;14.15;;;3.53;;
69203;SDS011;56317;27.658;85.326;2022-07-24T11:20:12;8.68;;;4.07;;
69203;SDS011;56317;27.658;85.326;2022-07-24T11:22:45;6.93;;;3.90;;
69203;SDS011;56317;27.658;85.326;2022-07-24T11:30:22;6.18;;;3.08;;
69203;SDS011;56317;27.658;85.326;2022-07-24T11:32:54;9.38;;;3.25;;
69203;SDS011;56317;27.658;85.326;2022-07-24T11:35:34;8.23;;;3.70;;
69203;SDS011;56317;27.658;85.326;2022-07-24T11:38:04;9.00;;;3.17;;
69203;SDS011;56317;27.658;85.326;2022-07-24T11:40:33;11.88;;;4.22;;
69203;SDS011;56317;27.658;85.326;2022-07-24T11:43:02;9.55;;;3.78;;
69203;SDS011;56317;27.658;85.326;2022-07-24T11:45:31;8.10;;;3.95;;
69203;SDS011;56317;27.658;85.326;2022-07-24T11:47:59;11.90;;;4.45;;
69203;SDS011;56317;27.658;85.326;2022-07-24T11:50:26;6.47;;;4.10;;
69203;SDS011;56317;27.658;85.326;2022-07-24T11:52:53;7.32;;;4.32;;
69203;SDS011;56317;27.658;85.326;2022-07-24T11:55:22;14.75;;;5.85;;
69203;SDS011;56317;27.658;85.326;2022-07-24T11:57:52;11.40;;;4.13;;
69203;SDS011;56317;27.658;85.326;2022-07-24T12:00:25;12.40;;;4.90;;
69203;SDS011;56317;27.658;85.326;2022-07-24T12:02:56;10.48;;;4.43;;
69203;SDS011;56317;27.658;85.326;2022-07-24T12:07:53;9.13;;;5.13;;
69203;SDS011;56317;27.658;85.326;2022-07-24T12:10:30;19.42;;;7.38;;
69203;SDS011;56317;27.658;85.326;2022-07-24T12:12:58;8.98;;;4.97;;
69203;SDS011;56317;27.658;85.326;2022-07-24T12:15:25;10.45;;;4.47;;
69203;SDS011;56317;27.658;85.326;2022-07-24T12:17:54;10.63;;;4.55;;
69203;SDS011;56317;27.658;85.326;2022-07-24T12:20:31;12.88;;;5.70;;
69203;SDS011;56317;27.658;85.326;2022-07-24T12:23:00;11.85;;;6.13;;
69203;SDS011;56317;27.658;85.326;2022-07-24T12:25:31;12.93;;;5.70;;
69203;SDS011;56317;27.658;85.326;2022-07-24T12:28:05;13.13;;;6.18;;
69203;SDS011;56317;27.658;85.326;2022-07-24T12:30:35;11.32;;;5.05;;
69203;SDS011;56317;27.658;85.326;2022-07-24T12:33:08;8.65;;;4.68;;
69203;SDS011;56317;27.658;85.326;2022-07-24T12:35:52;13.35;;;4.95;;
69203;SDS011;56317;27.658;85.326;2022-07-24T12:38:33;8.13;;;4.10;;
69203;SDS011;56317;27.658;85.326;2022-07-24T12:43:30;11.50;;;5.78;;
69203;SDS011;56317;27.658;85.326;2022-07-24T12:46:07;10.75;;;5.32;;
69203;SDS011;56317;27.658;85.326;2022-07-24T12:48:36;8.60;;;5.25;;
69203;SDS011;56317;27.658;85.326;2022-07-24T12:51:10;9.98;;;5.13;;
69203;SDS011;56317;27.658;85.326;2022-07-24T12:53:39;14.90;;;6.38;;
69203;SDS011;56317;27.658;85.326;2022-07-24T12:56:11;10.95;;;5.13;;
69203;SDS011;56317;27.658;85.326;2022-07-24T13:01:19;14.30;;;4.63;;
69203;SDS011;56317;27.658;85.326;2022-07-24T13:03:53;12.93;;;5.68;;
69203;SDS011;56317;27.658;85.326;2022-07-24T13:09:20;11.60;;;5.00;;
69203;SDS011;56317;27.658;85.326;2022-07-24T13:11:49;11.82;;;4.78;;
69203;SDS011;56317;27.658;85.326;2022-07-24T13:14:18;10.35;;;3.97;;
69203;SDS011;56317;27.658;85.326;2022-07-24T13:16:47;9.40;;;4.45;;
69203;SDS011;56317;27.658;85.326;2022-07-24T13:19:15;9.10;;;4.30;;
69203;SDS011;56317;27.658;85.326;2022-07-24T13:21:44;9.73;;;4.82;;
69203;SDS011;56317;27.658;85.326;2022-07-24T13:24:13;9.80;;;4.53;;
69203;SDS011;56317;27.658;85.326;2022-07-24T13:26:42;8.75;;;4.57;;
69203;SDS011;56317;27.658;85.326;2022-07-24T13:29:10;11.80;;;5.25;;
69203;SDS011;56317;27.658;85.326;2022-07-24T13:31:39;17.40;;;5.00;;
69203;SDS011;56317;27.658;85.326;2022-07-24T13:34:06;9.65;;;5.07;;
69203;SDS011;56317;27.658;85.326;2022-07-24T13:36:34;9.45;;;5.03;;
69203;SDS011;56317;27.658;85.326;2022-07-24T13:39:06;10.82;;;6.05;;
69203;SDS011;56317;27.658;85.326;2022-07-24T13:44:01;11.15;;;5.72;;
69203;SDS011;56317;27.658;85.326;2022-07-24T13:46:30;10.88;;;6.32;;
69203;SDS011;56317;27.658;85.326;2022-07-24T13:48:59;9.32;;;6.25;;
69203;SDS011;56317;27.658;85.326;2022-07-24T13:51:27;8.52;;;4.93;;
69203;SDS011;56317;27.658;85.326;2022-07-24T13:53:55;9.20;;;4.93;;
69203;SDS011;56317;27.658;85.326;2022-07-24T13:56:32;11.07;;;4.68;;
69203;SDS011;56317;27.658;85.326;2022-07-24T13:59:03;10.07;;;5.38;;
69203;SDS011;56317;27.658;85.326;2022-07-24T14:01:30;11.30;;;5.22;;
69203;SDS011;56317;27.658;85.326;2022-07-24T14:03:58;11.15;;;5.10;;
69203;SDS011;56317;27.658;85.326;2022-07-24T14:06:34;8.45;;;4.90;;
69203;SDS011;56317;27.658;85.326;2022-07-24T14:09:03;14.75;;;5.95;;
69203;SDS011;56317;27.658;85.326;2022-07-24T14:11:30;6.90;;;4.20;;
69203;SDS011;56317;27.658;85.326;2022-07-24T14:13:59;7.75;;;4.55;;
69203;SDS011;56317;27.658;85.326;2022-07-24T14:16:26;7.68;;;3.83;;
69203;SDS011;56317;27.658;85.326;2022-07-24T14:18:56;7.70;;;5.63;;
69203;SDS011;56317;27.658;85.326;2022-07-24T14:21:24;9.32;;;3.90;;
69203;SDS011;56317;27.658;85.326;2022-07-24T14:23:51;11.95;;;3.80;;
69203;SDS011;56317;27.658;85.326;2022-07-24T14:26:19;7.15;;;3.60;;
69203;SDS011;56317;27.658;85.326;2022-07-24T14:28:46;5.22;;;3.25;;
69203;SDS011;56317;27.658;85.326;2022-07-24T14:31:13;4.80;;;2.58;;
69203;SDS011;56317;27.658;85.326;2022-07-24T14:33:40;4.70;;;2.28;;
69203;SDS011;56317;27.658;85.326;2022-07-24T14:36:07;4.93;;;2.53;;
69203;SDS011;56317;27.658;85.326;2022-07-24T14:38:35;3.92;;;2.08;;
69203;SDS011;56317;27.658;85.326;2022-07-24T14:41:02;3.85;;;2.20;;
69203;SDS011;56317;27.658;85.326;2022-07-24T14:43:29;6.78;;;2.47;;
69203;SDS011;56317;27.658;85.326;2022-07-24T14:45:56;4.47;;;2.70;;
69203;SDS011;56317;27.658;85.326;2022-07-24T14:48:23;6.88;;;3.13;;
69203;SDS011;56317;27.658;85.326;2022-07-24T14:50:51;6.60;;;2.65;;
69203;SDS011;56317;27.658;85.326;2022-07-24T14:53:18;5.57;;;2.30;;
69203;SDS011;56317;27.658;85.326;2022-07-24T14:55:45;10.20;;;2.30;;
69203;SDS011;56317;27.658;85.326;2022-07-24T14:58:12;5.95;;;2.00;;
69203;SDS011;56317;27.658;85.326;2022-07-24T15:00:40;6.13;;;2.35;;
69203;SDS011;56317;27.658;85.326;2022-07-24T15:03:07;5.05;;;2.50;;
69203;SDS011;56317;27.658;85.326;2022-07-24T15:05:34;4.32;;;1.90;;
69203;SDS011;56317;27.658;85.326;2022-07-24T15:08:22;3.67;;;2.05;;
69203;SDS011;56317;27.658;85.326;2022-07-24T15:10:49;2.80;;;1.70;;
69203;SDS011;56317;27.658;85.326;2022-07-24T15:13:16;2.88;;;1.85;;
69203;SDS011;56317;27.658;85.326;2022-07-24T15:15:44;3.75;;;1.77;;
69203;SDS011;56317;27.658;85.326;2022-07-24T15:18:20;4.07;;;1.98;;
69203;SDS011;56317;27.658;85.326;2022-07-24T15:20:47;2.40;;;1.20;;
69203;SDS011;56317;27.658;85.326;2022-07-24T15:23:15;1.85;;;1.50;;
69203;SDS011;56317;27.658;85.326;2022-07-24T15:25:42;2.75;;;1.52;;
69203;SDS011;56317;27.658;85.326;2022-07-24T15:28:12;2.80;;;1.48;;
69203;SDS011;56317;27.658;85.326;2022-07-24T15:30:39;2.80;;;1.40;;
69203;SDS011;56317;27.658;85.326;2022-07-24T15:33:06;2.28;;;1.30;;
69203;SDS011;56317;27.658;85.326;2022-07-24T15:35:34;2.42;;;1.48;;
69203;SDS011;56317;27.658;85.326;2022-07-24T15:38:01;2.25;;;1.48;;
69203;SDS011;56317;27.658;85.326;2022-07-24T15:40:28;2.53;;;1.50;;
69203;SDS011;56317;27.658;85.326;2022-07-24T15:42:56;2.05;;;1.52;;
69203;SDS011;56317;27.658;85.326;2022-07-24T15:45:24;2.30;;;1.52;;
69203;SDS011;56317;27.658;85.326;2022-07-24T15:47:51;2.53;;;1.80;;
69203;SDS011;56317;27.658;85.326;2022-07-24T15:50:19;3.75;;;1.73;;
69203;SDS011;56317;27.658;85.326;2022-07-24T15:52:46;2.70;;;1.42;;
69203;SDS011;56317;27.658;85.326;2022-07-24T15:55:13;1.90;;;1.30;;